NOZ666 ENAT-ENSB
Flight info
| Callsign | NOZ666 |
|---|---|
| Flight time | N/A |
| Altitude | 38000 |
| Route | ELSEV DCT OLOLI DCT AMPIS |
| Aircraft | B738/M-SDE2E3FGHIRWXY/LB1 |
Departure
| Time | 2026-04-29 23:19 |
|---|---|
| Airport | Alta Airport (ENAT) |
Arrival
| Time | N/A |
|---|---|
| Airport | Svalbard Airport, Longyear (ENSB) |
| Time | Latitude | Longitude | Altitude | Speed | Heading |
|---|---|---|---|---|---|
| 2026-04-29 22:55 | 69.97822 | 23.34808 | 34 ft | 0 kts | 211° |
| 2026-04-29 23:11 | 69.97829 | 23.34822 | 34 ft | 4 kts | 211° |
| 2026-04-29 23:11 | 69.97853 | 23.34862 | 34 ft | 4 kts | 211° |
| 2026-04-29 23:11 | 69.97876 | 23.34902 | 32 ft | 3 kts | 211° |
| 2026-04-29 23:11 | 69.97879 | 23.34909 | 32 ft | 0 kts | 211° |
| 2026-04-29 23:14 | 69.97879 | 23.34908 | 32 ft | 0 kts | 211° |
| 2026-04-29 23:15 | 69.97876 | 23.34883 | 33 ft | 4 kts | 264° |
| 2026-04-29 23:15 | 69.97902 | 23.34792 | 34 ft | 7 kts | 316° |
| 2026-04-29 23:15 | 69.97935 | 23.34682 | 34 ft | 8 kts | 306° |
| 2026-04-29 23:16 | 69.97969 | 23.34544 | 33 ft | 9 kts | 299° |
| 2026-04-29 23:16 | 69.98006 | 23.34386 | 34 ft | 10 kts | 309° |
| 2026-04-29 23:16 | 69.98059 | 23.34229 | 34 ft | 11 kts | 320° |
| 2026-04-29 23:16 | 69.98120 | 23.34068 | 34 ft | 12 kts | 317° |
| 2026-04-29 23:17 | 69.98188 | 23.33893 | 33 ft | 13 kts | 330° |
| 2026-04-29 23:17 | 69.98200 | 23.33881 | 34 ft | 2 kts | 347° |
| 2026-04-29 23:17 | 69.98220 | 23.33880 | 34 ft | 4 kts | 3° |
| 2026-04-29 23:17 | 69.98246 | 23.33911 | 35 ft | 4 kts | 32° |
| 2026-04-29 23:18 | 69.98261 | 23.33985 | 35 ft | 5 kts | 89° |
| 2026-04-29 23:18 | 69.98256 | 23.34032 | 35 ft | 0 kts | 114° |
| 2026-04-29 23:18 | 69.98253 | 23.34050 | 35 ft | 2 kts | 118° |
| 2026-04-29 23:18 | 69.98242 | 23.34104 | 34 ft | 4 kts | 122° |
| 2026-04-29 23:19 | 69.98184 | 23.34383 | 35 ft | 46 kts | 121° |
| 2026-04-29 23:19 | 69.97879 | 23.35853 | 33 ft | 120 kts | 121° |
| 2026-04-29 23:19 | 69.97345 | 23.38424 | 133 ft | 168 kts | 125° |
| 2026-04-29 23:19 | 69.96665 | 23.41191 | 880 ft | 164 kts | 128° |
| 2026-04-29 23:20 | 69.96274 | 23.44289 | 1531 ft | 177 kts | 84° |
| 2026-04-29 23:20 | 69.96908 | 23.47422 | 2104 ft | 190 kts | 33° |
| 2026-04-29 23:20 | 69.98173 | 23.48170 | 2980 ft | 192 kts | 348° |
| 2026-04-29 23:20 | 69.99406 | 23.47186 | 3957 ft | 179 kts | 332° |
| 2026-04-29 23:21 | 70.00249 | 23.44805 | 4704 ft | 170 kts | 289° |
| 2026-04-29 23:21 | 70.00454 | 23.41416 | 5357 ft | 172 kts | 282° |
| 2026-04-29 23:21 | 70.00642 | 23.37901 | 5910 ft | 178 kts | 283° |
| 2026-04-29 23:21 | 70.00830 | 23.34283 | 6510 ft | 183 kts | 284° |
| 2026-04-29 23:22 | 70.01026 | 23.30502 | 7024 ft | 193 kts | 283° |
| 2026-04-29 23:22 | 70.01411 | 23.26794 | 7716 ft | 191 kts | 307° |
| 2026-04-29 23:22 | 70.02390 | 23.23899 | 8054 ft | 215 kts | 321° |
| 2026-04-29 23:22 | 70.03659 | 23.21120 | 8341 ft | 239 kts | 323° |
| 2026-04-29 23:23 | 70.05041 | 23.18206 | 8981 ft | 249 kts | 323° |
| 2026-04-29 23:23 | 70.06463 | 23.15204 | 9789 ft | 254 kts | 323° |
| 2026-04-29 23:23 | 70.07918 | 23.12114 | 10360 ft | 267 kts | 323° |
| 2026-04-29 23:23 | 70.09490 | 23.08754 | 10545 ft | 291 kts | 323° |
| 2026-04-29 23:24 | 70.11188 | 23.05103 | 10728 ft | 314 kts | 323° |
| 2026-04-29 23:24 | 70.13007 | 23.01174 | 10942 ft | 333 kts | 323° |
| 2026-04-29 23:24 | 70.14898 | 22.97072 | 11481 ft | 341 kts | 323° |
| 2026-04-29 23:24 | 70.16813 | 22.92934 | 12216 ft | 342 kts | 325° |
| 2026-04-29 23:25 | 70.18969 | 22.89959 | 12952 ft | 347 kts | 343° |
| 2026-04-29 23:25 | 70.21365 | 22.88862 | 13740 ft | 353 kts | 354° |
| 2026-04-29 23:25 | 70.23849 | 22.88829 | 14350 ft | 360 kts | 356° |
| 2026-04-29 23:25 | 70.26367 | 22.89021 | 14994 ft | 364 kts | 357° |
| 2026-04-29 23:26 | 70.28910 | 22.89267 | 15709 ft | 367 kts | 358° |
| 2026-04-29 23:26 | 70.31470 | 22.89506 | 16422 ft | 369 kts | 358° |
| 2026-04-29 23:26 | 70.34052 | 22.89719 | 17084 ft | 374 kts | 357° |
| 2026-04-29 23:26 | 70.36663 | 22.89907 | 17726 ft | 377 kts | 357° |
| 2026-04-29 23:27 | 70.39296 | 22.90076 | 18374 ft | 381 kts | 357° |
| 2026-04-29 23:27 | 70.41962 | 22.90235 | 18921 ft | 384 kts | 357° |
| 2026-04-29 23:27 | 70.44648 | 22.90390 | 19467 ft | 388 kts | 357° |
| 2026-04-29 23:27 | 70.47358 | 22.90544 | 20017 ft | 391 kts | 357° |
| 2026-04-29 23:28 | 70.50091 | 22.90693 | 20551 ft | 395 kts | 357° |
| 2026-04-29 23:28 | 70.52817 | 22.90842 | 21036 ft | 399 kts | 357° |
| 2026-04-29 23:28 | 70.55638 | 22.90997 | 21561 ft | 402 kts | 358° |
| 2026-04-29 23:28 | 70.58447 | 22.91153 | 22065 ft | 405 kts | 358° |
| 2026-04-29 23:29 | 70.61238 | 22.91309 | 22557 ft | 408 kts | 358° |
| 2026-04-29 23:29 | 70.64094 | 22.91469 | 23018 ft | 412 kts | 358° |
| 2026-04-29 23:29 | 70.66974 | 22.91631 | 23490 ft | 415 kts | 358° |
| 2026-04-29 23:29 | 70.69873 | 22.91794 | 23876 ft | 418 kts | 358° |
| 2026-04-29 23:30 | 70.72797 | 22.91960 | 24265 ft | 421 kts | 358° |
| 2026-04-29 23:30 | 70.75728 | 22.92126 | 24655 ft | 423 kts | 358° |
| 2026-04-29 23:30 | 70.78676 | 22.92294 | 25023 ft | 425 kts | 358° |
| 2026-04-29 23:30 | 70.80677 | 22.92408 | 25275 ft | 427 kts | 358° |
| 2026-04-29 23:31 | 70.83616 | 22.92575 | 25625 ft | 429 kts | 358° |
| 2026-04-29 23:31 | 70.86612 | 22.92746 | 25958 ft | 432 kts | 358° |
| 2026-04-29 23:31 | 70.89630 | 22.92918 | 26243 ft | 436 kts | 358° |
| 2026-04-29 23:31 | 70.92669 | 22.93094 | 26586 ft | 438 kts | 358° |
| 2026-04-29 23:32 | 70.95718 | 22.93271 | 26924 ft | 439 kts | 358° |
| 2026-04-29 23:32 | 70.98782 | 22.93449 | 27245 ft | 441 kts | 358° |
| 2026-04-29 23:32 | 71.01863 | 22.93629 | 27544 ft | 444 kts | 358° |
| 2026-04-29 23:32 | 71.04957 | 22.93809 | 27838 ft | 446 kts | 358° |
| 2026-04-29 23:33 | 71.08063 | 22.93990 | 28132 ft | 448 kts | 358° |
| 2026-04-29 23:33 | 71.11179 | 22.94116 | 28501 ft | 447 kts | 356° |
| 2026-04-29 23:33 | 71.14255 | 22.93339 | 28879 ft | 442 kts | 349° |
| 2026-04-29 23:33 | 71.17294 | 22.91883 | 29267 ft | 442 kts | 347° |
| 2026-04-29 23:34 | 71.20322 | 22.90291 | 29667 ft | 441 kts | 347° |
| 2026-04-29 23:34 | 71.23341 | 22.88671 | 30100 ft | 440 kts | 347° |
| 2026-04-29 23:34 | 71.26366 | 22.87060 | 30353 ft | 442 kts | 347° |
| 2026-04-29 23:34 | 71.29405 | 22.85471 | 30647 ft | 442 kts | 347° |
| 2026-04-29 23:35 | 71.32437 | 22.83914 | 31018 ft | 441 kts | 348° |
| 2026-04-29 23:35 | 71.35462 | 22.82378 | 31393 ft | 440 kts | 348° |
| 2026-04-29 23:35 | 71.38486 | 22.80851 | 31735 ft | 440 kts | 348° |
| 2026-04-29 23:35 | 71.41503 | 22.79330 | 32058 ft | 440 kts | 348° |
| 2026-04-29 23:36 | 71.44524 | 22.77804 | 32400 ft | 439 kts | 348° |
| 2026-04-29 23:36 | 71.47536 | 22.76279 | 32753 ft | 438 kts | 348° |